Time;durP1;ratioP1;P1;durP2;ratioP2;P2;SDS_P1;SDS_P2;PMS_P1;PMS_P2;Temp;Humidity;BMP_temperature;BMP_pressure;BME280_temperature;BME280_humidity;BME280_pressure;Samples;Min_cycle;Max_cycle;Signal;HPM_P1;HPM_P2
2023/08/31 00:02:07;;;;;;;0.00;0.00;;;;;;;15.23;100.00;100037.19;5066640;28;20039;-88
2023/08/31 00:04:32;;;;;;;0.00;0.00;;;;;;;15.24;100.00;100033.56;5052750;28;20137;-87
2023/08/31 00:06:58;;;;;;;0.00;0.00;;;;;;;15.33;100.00;100044.75;5053196;28;20032;-88
2023/08/31 00:09:24;;;;;;;0.00;0.00;;;;;;;15.19;100.00;100038.53;5050300;28;20684;-87
2023/08/31 00:11:50;;;;;;;0.00;0.00;;;;;;;15.10;100.00;100037.06;5050834;28;20584;-88
2023/08/31 00:14:17;;;;;;;0.00;0.00;;;;;;;15.10;100.00;100031.81;5065711;28;20127;-87
2023/08/31 00:16:43;;;;;;;0.00;0.00;;;;;;;15.12;100.00;100032.44;5047562;28;20036;-87
2023/08/31 00:19:08;;;;;;;0.00;0.00;;;;;;;15.20;100.00;100034.91;5051582;28;20033;-87
2023/08/31 00:21:34;;;;;;;0.00;0.00;;;;;;;15.28;100.00;100034.81;5054044;28;20032;-87
2023/08/31 00:23:59;;;;;;;0.00;0.00;;;;;;;15.36;100.00;100039.97;5047409;28;20637;-87
2023/08/31 00:26:25;;;;;;;0.00;0.00;;;;;;;15.41;100.00;100040.22;5053476;28;20706;-88
2023/08/31 00:28:50;;;;;;;0.00;0.00;;;;;;;15.43;100.00;100037.41;5062623;28;20472;-87
2023/08/31 00:31:16;;;;;;;0.00;0.00;;;;;;;15.42;100.00;100041.84;5050627;28;20445;-88
2023/08/31 00:33:44;;;;;;;0.00;0.00;;;;;;;15.43;100.00;100043.47;5066055;28;20048;-87
2023/08/31 00:36:09;;;;;;;0.00;0.00;;;;;;;15.39;100.00;100046.66;5045467;28;20036;-88
2023/08/31 00:38:35;;;;;;;0.00;0.00;;;;;;;15.38;100.00;100051.09;5055853;28;20032;-87
2023/08/31 00:41:01;;;;;;;0.00;0.00;;;;;;;15.35;100.00;100051.44;5052251;28;20466;-87
2023/08/31 00:43:27;;;;;;;0.00;0.00;;;;;;;15.37;100.00;100059.16;5052701;28;20051;-88
2023/08/31 00:45:58;;;;;;;0.00;0.00;;;;;;;15.35;100.00;100050.63;5048356;28;20107;-88
2023/08/31 00:48:24;;;;;;;0.00;0.00;;;;;;;15.34;100.00;100060.31;5048348;28;20064;-88
2023/08/31 00:50:50;;;;;;;0.00;0.00;;;;;;;15.24;100.00;100065.03;5050169;28;20523;-87
2023/08/31 00:53:17;;;;;;;0.00;0.00;;;;;;;15.13;100.00;100065.50;5059409;28;20048;-87
2023/08/31 00:55:44;;;;;;;0.00;0.00;;;;;;;15.14;100.00;100059.28;5049632;28;20923;-87
2023/08/31 00:58:10;;;;;;;0.00;0.00;;;;;;;15.07;100.00;100068.91;5055887;28;20055;-87
2023/08/31 01:00:54;;;;;;;0.00;0.00;;;;;;;15.06;100.00;100073.34;5063434;28;20131;-87
2023/08/31 01:03:46;;;;;;;0.00;0.00;;;;;;;15.03;100.00;100071.06;5071100;28;20113;-87
2023/08/31 01:06:41;;;;;;;0.00;0.00;;;;;;;15.13;100.00;100078.63;5070956;28;20560;-87
2023/08/31 01:09:17;;;;;;;0.00;0.00;;;;;;;15.20;100.00;100085.59;5052039;28;20036;-87
2023/08/31 01:11:59;;;;;;;0.00;0.00;;;;;;;15.24;100.00;100091.28;5052316;28;20049;-88
2023/08/31 01:14:31;;;;;;;0.00;0.00;;;;;;;15.24;100.00;100091.28;5053613;28;20097;-87
2023/08/31 01:16:59;;;;;;;0.00;0.00;;;;;;;15.24;100.00;100088.66;5047592;28;20029;-87
2023/08/31 01:19:43;;;;;;;0.00;0.00;;;;;;;15.15;100.00;100087.94;5049264;28;20078;-87
2023/08/31 01:22:16;;;;;;;0.00;0.00;;;;;;;14.76;100.00;100088.25;5055735;28;20040;-87
2023/08/31 01:24:43;;;;;;;0.00;0.00;;;;;;;14.64;100.00;100094.97;5068025;28;20046;-87
2023/08/31 01:27:09;;;;;;;0.00;0.00;;;;;;;14.54;100.00;100100.47;5072387;28;20044;-87
2023/08/31 01:29:35;;;;;;;0.00;0.00;;;;;;;14.51;100.00;100095.56;5054415;28;20074;-87
2023/08/31 01:32:00;;;;;;;0.00;0.00;;;;;;;14.52;100.00;100101.63;5051553;28;22917;-87
2023/08/31 01:34:26;;;;;;;0.00;0.00;;;;;;;14.48;100.00;100105.59;5051991;28;20037;-87
2023/08/31 01:36:58;;;;;;;0.00;0.00;;;;;;;14.48;100.00;100110.84;5067294;28;20088;-87
2023/08/31 01:39:31;;;;;;;0.00;0.00;;;;;;;14.57;100.00;100104.53;5067936;28;20032;-86
2023/08/31 01:42:01;;;;;;;0.00;0.00;;;;;;;14.56;100.00;100102.91;5049957;28;20176;-86
2023/08/31 01:44:28;;;;;;;0.00;0.00;;;;;;;14.54;100.00;100104.88;5054760;28;20036;-86
2023/08/31 01:46:54;;;;;;;0.00;0.00;;;;;;;14.47;100.00;100109.22;5069385;28;20054;-86
2023/08/31 01:49:21;;;;;;;0.00;0.00;;;;;;;14.46;100.00;100112.81;5053289;28;20504;-87
2023/08/31 01:51:46;;;;;;;0.00;0.00;;;;;;;14.42;100.00;100109.75;5050251;28;20097;-87
2023/08/31 01:54:12;;;;;;;0.00;0.00;;;;;;;14.41;100.00;100125.63;5065683;28;20523;-86
2023/08/31 01:56:37;;;;;;;0.00;0.00;;;;;;;14.39;100.00;100117.94;5050558;28;20541;-86
2023/08/31 01:59:03;;;;;;;0.00;0.00;;;;;;;14.48;100.00;100126.56;5056257;28;20036;-86
2023/08/31 02:01:29;;;;;;;0.00;0.00;;;;;;;14.57;100.00;100130.75;5058074;28;20034;-86
2023/08/31 02:03:54;;;;;;;0.00;0.00;;;;;;;14.55;100.00;100132.72;5069735;28;20037;-85
2023/08/31 02:06:20;;;;;;;0.00;0.00;;;;;;;14.52;100.00;100131.28;5059682;28;20340;-86
2023/08/31 02:08:47;;;;;;;0.00;0.00;;;;;;;14.48;100.00;100137.06;5054836;28;20046;-86
2023/08/31 02:11:13;;;;;;;0.10;0.00;;;;;;;14.40;100.00;100126.59;5050369;28;20039;-86
2023/08/31 02:13:39;;;;;;;0.00;0.00;;;;;;;14.28;100.00;100132.25;5053961;28;20037;-86
2023/08/31 02:16:04;;;;;;;0.00;0.00;;;;;;;14.23;100.00;100131.97;5050039;28;20080;-86
2023/08/31 02:18:30;;;;;;;0.00;0.00;;;;;;;14.18;100.00;100130.88;5052397;28;20938;-86
2023/08/31 02:20:55;;;;;;;0.55;0.00;;;;;;;14.19;100.00;100135.94;5070070;28;20036;-86
2023/08/31 02:23:20;;;;;;;0.00;0.00;;;;;;;14.19;100.00;100133.31;5047120;28;20032;-86
2023/08/31 02:25:46;;;;;;;0.00;0.00;;;;;;;14.18;100.00;100136.09;5056406;28;20171;-86
2023/08/31 02:28:11;;;;;;;0.00;0.00;;;;;;;14.11;100.00;100141.25;5063186;28;20126;-86
2023/08/31 02:30:37;;;;;;;0.00;0.00;;;;;;;14.12;100.00;100142.91;5070364;28;20032;-86
2023/08/31 02:33:03;;;;;;;0.00;0.00;;;;;;;14.16;100.00;100144.19;5050835;28;20036;-86
2023/08/31 02:35:28;;;;;;;0.00;0.00;;;;;;;14.18;100.00;100146.59;5049787;28;20089;-86
2023/08/31 02:37:54;;;;;;;0.00;0.00;;;;;;;14.20;100.00;100142.81;5047103;28;20131;-86
2023/08/31 02:40:21;;;;;;;0.00;0.00;;;;;;;14.19;100.00;100141.19;5050334;28;20138;-86
2023/08/31 02:42:47;;;;;;;0.00;0.00;;;;;;;14.25;100.00;100137.03;5050368;28;20044;-86
2023/08/31 02:45:12;;;;;;;0.00;0.00;;;;;;;14.29;100.00;100140.94;5070424;28;20090;-86
2023/08/31 02:47:37;;;;;;;0.00;0.00;;;;;;;14.21;100.00;100154.09;5052177;28;20093;-86
2023/08/31 02:50:04;;;;;;;0.00;0.00;;;;;;;14.10;100.00;100149.28;5052012;28;20036;-85
2023/08/31 02:52:29;;;;;;;0.00;0.00;;;;;;;14.11;100.00;100150.94;5049618;28;20051;-86
2023/08/31 02:54:55;;;;;;;0.00;0.00;;;;;;;14.16;100.00;100157.28;5061353;28;20582;-85
2023/08/31 02:57:21;;;;;;;0.00;0.00;;;;;;;14.22;100.00;100161.78;5049982;28;20035;-85
2023/08/31 02:59:50;;;;;;;0.00;0.00;;;;;;;14.19;100.00;100167.38;5053520;28;20029;-86
2023/08/31 03:02:18;;;;;;;0.00;0.00;;;;;;;14.06;100.00;100163.72;5054668;28;21306;-85
2023/08/31 03:04:43;;;;;;;0.00;0.00;;;;;;;14.02;100.00;100158.03;5059233;28;20051;-86
2023/08/31 03:07:13;;;;;;;0.00;0.00;;;;;;;14.06;100.00;100167.16;5047105;28;20055;-86
2023/08/31 03:09:39;;;;;;;0.00;0.00;;;;;;;14.08;100.00;100164.38;5051946;28;20048;-85
2023/08/31 03:12:05;;;;;;;0.00;0.00;;;;;;;14.08;100.00;100173.03;5051375;28;20493;-86
2023/08/31 03:14:30;;;;;;;0.00;0.00;;;;;;;14.09;100.00;100173.88;5053149;28;20389;-85
2023/08/31 03:16:55;;;;;;;0.00;0.00;;;;;;;14.08;100.00;100167.81;5066362;28;20089;-85
2023/08/31 03:19:21;;;;;;;0.00;0.00;;;;;;;14.08;100.00;100175.66;5055519;28;20032;-85
2023/08/31 03:21:46;;;;;;;0.00;0.00;;;;;;;14.12;100.00;100176.94;5047736;28;20039;-85
2023/08/31 03:24:12;;;;;;;0.00;0.00;;;;;;;14.10;100.00;100184.16;5048954;28;20039;-85
2023/08/31 03:26:37;;;;;;;0.00;0.00;;;;;;;14.10;100.00;100194.66;5051912;28;20036;-86
2023/08/31 03:29:03;;;;;;;0.00;0.00;;;;;;;14.10;100.00;100188.59;5054364;28;20059;-85
2023/08/31 03:31:30;;;;;;;0.00;0.00;;;;;;;14.06;100.00;100190.75;5055266;28;20032;-85
2023/08/31 03:33:55;;;;;;;0.00;0.00;;;;;;;14.06;100.00;100185.50;5047522;28;20036;-85
2023/08/31 03:36:21;;;;;;;0.03;0.00;;;;;;;14.06;100.00;100188.13;5048551;28;20036;-86
2023/08/31 03:38:46;;;;;;;0.00;0.00;;;;;;;14.03;100.00;100191.09;5054963;28;20700;-85
2023/08/31 03:41:12;;;;;;;0.00;0.00;;;;;;;14.02;100.00;100191.25;5049125;28;20098;-85
2023/08/31 03:43:38;;;;;;;0.00;0.00;;;;;;;14.06;100.00;100195.16;5049053;28;20035;-85
2023/08/31 03:46:03;;;;;;;0.00;0.00;;;;;;;14.07;100.00;100205.47;5053660;28;20029;-85
2023/08/31 03:48:29;;;;;;;0.00;0.00;;;;;;;14.09;100.00;100208.72;5049494;28;20043;-86
2023/08/31 03:50:54;;;;;;;0.00;0.00;;;;;;;14.10;100.00;100209.56;5049499;28;20032;-85
2023/08/31 03:53:20;;;;;;;0.00;0.00;;;;;;;14.10;100.00;100210.38;5048518;28;20057;-85
2023/08/31 03:55:45;;;;;;;0.10;0.00;;;;;;;14.11;100.00;100208.56;5050529;28;20035;-85
2023/08/31 03:58:11;;;;;;;0.00;0.00;;;;;;;14.12;100.00;100212.81;5059155;28;20545;-85
2023/08/31 04:00:37;;;;;;;0.00;0.00;;;;;;;14.14;100.00;100209.03;5060871;28;20565;-85
2023/08/31 04:03:04;;;;;;;0.00;0.00;;;;;;;14.19;100.00;100213.72;5053124;28;20033;-85
2023/08/31 04:05:33;;;;;;;0.00;0.00;;;;;;;14.24;100.00;100212.22;5059881;28;20039;-86
2023/08/31 04:07:59;;;;;;;0.00;0.00;;;;;;;14.26;100.00;100223.34;5050973;28;20024;-85
2023/08/31 04:10:25;;;;;;;0.08;0.00;;;;;;;14.24;100.00;100224.50;5052735;28;20756;-85
2023/08/31 04:12:51;;;;;;;0.00;0.00;;;;;;;14.25;100.00;100232.19;5044245;28;20037;-86
2023/08/31 04:15:17;;;;;;;0.00;0.00;;;;;;;14.23;100.00;100239.41;5050608;28;20063;-85
2023/08/31 04:17:43;;;;;;;0.00;0.00;;;;;;;14.26;100.00;100239.06;5053043;28;20064;-85
2023/08/31 04:20:08;;;;;;;0.00;0.00;;;;;;;14.25;100.00;100245.28;5048140;28;20389;-85
2023/08/31 04:22:34;;;;;;;0.00;0.00;;;;;;;14.21;100.00;100241.38;5046835;28;20051;-85
2023/08/31 04:24:59;;;;;;;0.00;0.00;;;;;;;14.23;100.00;100246.44;5048973;28;20035;-85
2023/08/31 04:27:25;;;;;;;0.00;0.00;;;;;;;14.21;100.00;100246.63;5046607;28;20036;-86
2023/08/31 04:29:50;;;;;;;0.00;0.00;;;;;;;14.20;100.00;100242.38;5045906;28;20041;-85
2023/08/31 04:32:16;;;;;;;0.00;0.00;;;;;;;14.20;100.00;100245.00;5051666;28;20036;-85
2023/08/31 04:34:41;;;;;;;0.00;0.00;;;;;;;14.18;100.00;100239.09;5047450;28;20037;-85
2023/08/31 04:37:06;;;;;;;0.00;0.00;;;;;;;14.19;100.00;100253.84;5048792;28;20047;-85
2023/08/31 04:39:32;;;;;;;0.00;0.00;;;;;;;14.19;100.00;100256.47;5062892;28;20039;-85
2023/08/31 04:41:57;;;;;;;0.00;0.00;;;;;;;14.20;100.00;100254.66;5060288;28;20083;-86
2023/08/31 04:44:23;;;;;;;0.00;0.00;;;;;;;14.21;100.00;100266.78;5058782;28;20165;-85
2023/08/31 04:46:48;;;;;;;0.00;0.00;;;;;;;14.21;100.00;100262.34;5065085;28;20033;-85
2023/08/31 04:49:14;;;;;;;0.00;0.00;;;;;;;14.21;100.00;100266.78;5064258;28;20036;-85
2023/08/31 04:51:41;;;;;;;0.00;0.00;;;;;;;14.14;100.00;100266.66;5062313;28;20511;-85
2023/08/31 04:54:07;;;;;;;0.00;0.00;;;;;;;14.16;100.00;100276.97;5070929;28;20044;-85
2023/08/31 04:56:33;;;;;;;0.00;0.00;;;;;;;14.15;100.00;100277.97;5065522;28;20032;-85
2023/08/31 04:59:00;;;;;;;0.00;0.00;;;;;;;14.16;100.00;100283.03;5063575;28;20060;-85
2023/08/31 05:01:25;;;;;;;0.10;0.00;;;;;;;14.17;100.00;100289.91;5068861;28;20419;-85
2023/08/31 05:03:51;;;;;;;0.00;0.00;;;;;;;14.17;100.00;100297.78;5077854;28;20025;-85
2023/08/31 05:06:16;;;;;;;0.00;0.00;;;;;;;14.20;100.00;100307.88;5064520;28;20032;-85
2023/08/31 05:08:42;;;;;;;0.05;0.00;;;;;;;14.20;100.00;100304.44;5066190;28;20036;-87
2023/08/31 05:11:07;;;;;;;0.00;0.00;;;;;;;14.17;100.00;100304.81;5068494;28;20393;-86
2023/08/31 05:13:34;;;;;;;0.00;0.00;;;;;;;14.18;100.00;100304.59;5069754;28;20086;-86
2023/08/31 05:15:59;;;;;;;0.00;0.00;;;;;;;14.16;100.00;100308.41;5069378;28;20040;-85
2023/08/31 05:18:25;;;;;;;0.00;0.00;;;;;;;14.20;100.00;100307.06;5069329;28;20481;-85
2023/08/31 05:20:50;;;;;;;0.00;0.00;;;;;;;14.22;100.00;100307.69;5067285;28;20071;-86
2023/08/31 05:23:15;;;;;;;0.00;0.00;;;;;;;14.24;100.00;100313.59;5064244;28;20028;-86
2023/08/31 05:25:44;;;;;;;0.10;0.00;;;;;;;14.25;100.00;100316.03;5063418;28;20040;-86
2023/08/31 05:28:10;;;;;;;0.10;0.00;;;;;;;14.26;100.00;100317.66;5065147;28;20481;-86
2023/08/31 05:30:36;;;;;;;0.00;0.00;;;;;;;14.29;100.00;100316.50;5061131;28;20047;-86
2023/08/31 05:33:02;;;;;;;0.00;0.00;;;;;;;14.32;100.00;100320.59;5064799;28;20032;-86
2023/08/31 05:35:28;;;;;;;0.35;0.00;;;;;;;14.33;100.00;100325.66;5077450;28;20020;-85
2023/08/31 05:37:53;;;;;;;0.10;0.00;;;;;;;14.44;100.00;100329.75;5068274;28;20029;-86
2023/08/31 05:40:19;;;;;;;0.15;0.00;;;;;;;14.49;100.00;100330.84;5073756;28;20033;-85
2023/08/31 05:42:44;;;;;;;0.00;0.00;;;;;;;14.51;100.00;100336.75;5063711;28;20041;-86
2023/08/31 05:45:10;;;;;;;0.00;0.00;;;;;;;14.57;100.00;100346.53;5065124;28;20369;-87
2023/08/31 05:47:35;;;;;;;0.00;0.00;;;;;;;14.63;100.00;100345.03;5059676;28;20103;-87
2023/08/31 05:50:07;;;;;;;0.00;0.00;;;;;;;14.67;100.00;100348.91;5063543;28;20055;-87
2023/08/31 05:52:35;;;;;;;0.00;0.00;;;;;;;14.75;100.00;100351.50;5061682;28;20172;-87
2023/08/31 05:55:00;;;;;;;0.00;0.00;;;;;;;14.78;100.00;100353.78;5044751;28;20032;-87
2023/08/31 05:57:27;;;;;;;0.00;0.00;;;;;;;14.78;100.00;100351.16;5048261;28;20110;-87
2023/08/31 05:59:53;;;;;;;0.00;0.00;;;;;;;14.77;100.00;100360.00;5051076;28;20589;-86
2023/08/31 06:02:18;;;;;;;0.00;0.00;;;;;;;14.77;100.00;100346.88;5055844;28;20043;-86
2023/08/31 06:04:44;;;;;;;0.00;0.00;;;;;;;14.73;100.00;100356.09;5059509;28;20036;-87
2023/08/31 06:07:09;;;;;;;0.00;0.00;;;;;;;14.75;100.00;100353.28;5073463;28;20094;-87
2023/08/31 06:09:35;;;;;;;0.00;0.00;;;;;;;14.81;100.00;100356.03;5051557;28;20035;-87
2023/08/31 06:12:00;;;;;;;0.00;0.00;;;;;;;14.91;100.00;100351.38;5046646;28;20037;-84
2023/08/31 06:14:25;;;;;;;0.00;0.00;;;;;;;14.99;100.00;100360.19;5063768;28;20474;-85
2023/08/31 06:16:52;;;;;;;0.00;0.00;;;;;;;15.08;100.00;100359.97;5045159;28;20115;-85
2023/08/31 06:19:18;;;;;;;0.00;0.00;;;;;;;15.09;100.00;100366.03;5045671;28;20082;-84
2023/08/31 06:21:43;;;;;;;0.10;0.00;;;;;;;15.17;100.00;100368.56;5061881;28;20032;-84
2023/08/31 06:24:12;;;;;;;0.00;0.00;;;;;;;15.18;100.00;100371.00;5053159;28;20040;-84
2023/08/31 06:26:38;;;;;;;0.00;0.00;;;;;;;15.21;100.00;100375.09;5044212;28;20055;-84
2023/08/31 06:29:04;;;;;;;0.00;0.00;;;;;;;15.34;100.00;100380.56;5042512;28;20324;-84
2023/08/31 06:31:29;;;;;;;0.00;0.00;;;;;;;15.37;100.00;100382.84;5047130;28;20491;-85
2023/08/31 06:33:55;;;;;;;0.00;0.00;;;;;;;15.46;100.00;100386.22;5048288;28;20036;-84
2023/08/31 06:36:20;;;;;;;0.00;0.00;;;;;;;15.57;100.00;100391.88;5045944;28;20495;-84
2023/08/31 06:38:46;;;;;;;0.00;0.00;;;;;;;15.58;100.00;100387.44;5048914;28;20825;-84
2023/08/31 06:41:11;;;;;;;0.55;0.55;;;;;;;15.69;100.00;100394.03;5048296;28;20493;-85
2023/08/31 06:43:37;;;;;;;0.00;0.00;;;;;;;15.79;100.00;100386.72;5055161;28;20084;-85
2023/08/31 06:46:02;;;;;;;0.00;0.00;;;;;;;15.84;100.00;100397.50;5046554;28;20078;-85
2023/08/31 06:48:28;;;;;;;0.00;0.00;;;;;;;15.96;100.00;100392.63;5049277;28;20606;-85
2023/08/31 06:50:54;;;;;;;0.00;0.00;;;;;;;16.05;100.00;100395.00;5053947;28;20123;-85
2023/08/31 06:53:19;;;;;;;0.00;0.00;;;;;;;16.31;100.00;100396.31;5049451;28;20052;-84
2023/08/31 06:55:45;;;;;;;0.00;0.00;;;;;;;16.55;100.00;100401.25;5048015;28;20033;-85
2023/08/31 06:58:10;;;;;;;0.00;0.00;;;;;;;16.75;100.00;100396.25;5052228;28;20036;-85
2023/08/31 07:00:36;;;;;;;0.00;0.00;;;;;;;16.94;100.00;100395.66;5044876;28;20039;-85
2023/08/31 07:03:01;;;;;;;0.00;0.00;;;;;;;17.12;100.00;100403.91;5053104;28;20044;-85
2023/08/31 07:05:27;;;;;;;0.05;0.00;;;;;;;17.25;100.00;100400.59;5046803;28;20035;-85
2023/08/31 07:07:56;;;;;;;0.00;0.00;;;;;;;17.37;98.94;100401.72;5047113;28;20493;-85
2023/08/31 07:10:22;;;;;;;0.00;0.00;;;;;;;17.53;100.00;100405.88;5064329;28;20066;-84
2023/08/31 07:12:47;;;;;;;0.00;0.00;;;;;;;17.57;100.00;100415.81;5051472;28;21201;-83
2023/08/31 07:15:15;;;;;;;0.00;0.00;;;;;;;17.72;100.00;100412.31;5064550;28;20076;-84
2023/08/31 07:17:40;;;;;;;0.10;0.00;;;;;;;17.79;100.00;100408.72;5054127;28;20040;-83
2023/08/31 07:20:07;;;;;;;0.00;0.00;;;;;;;17.80;93.62;100417.44;5042613;28;20029;-84
2023/08/31 07:22:34;;;;;;;0.00;0.00;;;;;;;17.76;97.06;100410.94;5048601;28;20036;-83
2023/08/31 07:24:59;;;;;;;0.00;0.00;;;;;;;17.70;96.47;100419.59;5054071;28;20047;-83
2023/08/31 07:27:25;;;;;;;0.00;0.00;;;;;;;17.65;97.34;100414.91;5049020;28;20486;-83
2023/08/31 07:29:50;;;;;;;0.00;0.00;;;;;;;17.58;97.93;100425.38;5056449;28;20031;-85
2023/08/31 07:32:16;;;;;;;0.00;0.00;;;;;;;17.56;100.00;100422.09;5042587;28;20791;-85
2023/08/31 07:34:42;;;;;;;0.00;0.00;;;;;;;17.64;99.42;100422.97;5051248;28;20036;-85
2023/08/31 07:37:07;;;;;;;0.00;0.00;;;;;;;17.90;100.00;100425.84;5043990;28;20033;-85
2023/08/31 07:39:33;;;;;;;0.00;0.00;;;;;;;18.18;100.00;100431.88;5048620;28;20034;-85
2023/08/31 07:41:59;;;;;;;0.00;0.00;;;;;;;18.19;100.00;100428.22;5045855;28;20032;-85
2023/08/31 07:44:24;;;;;;;0.00;0.00;;;;;;;18.19;100.00;100438.78;5050616;28;20040;-85
2023/08/31 07:46:50;;;;;;;0.15;0.10;;;;;;;18.20;100.00;100440.41;5043075;28;20032;-86
2023/08/31 07:49:16;;;;;;;0.00;0.00;;;;;;;18.26;100.00;100444.09;5061003;28;20089;-86
2023/08/31 07:51:41;;;;;;;0.00;0.00;;;;;;;18.41;99.67;100446.59;5048561;28;20498;-86
2023/08/31 07:54:07;;;;;;;0.10;0.00;;;;;;;18.68;100.00;100444.91;5048529;28;20076;-86
2023/08/31 07:56:34;;;;;;;0.00;0.00;;;;;;;18.95;100.00;100445.78;5043952;28;20610;-86
2023/08/31 07:58:59;;;;;;;0.00;0.00;;;;;;;19.12;100.00;100444.41;5057773;28;20043;-86
2023/08/31 08:01:24;;;;;;;0.00;0.00;;;;;;;19.19;99.94;100451.34;5063549;28;20036;-86
2023/08/31 08:03:50;;;;;;;0.00;0.00;;;;;;;19.25;96.60;100448.91;5048325;28;20173;-86
2023/08/31 08:06:15;;;;;;;0.00;0.00;;;;;;;19.34;94.97;100448.50;5051214;28;20039;-86
2023/08/31 08:08:41;;;;;;;0.00;0.00;;;;;;;19.34;89.22;100448.50;5049596;28;20048;-86
2023/08/31 08:11:06;;;;;;;0.00;0.00;;;;;;;19.46;93.32;100449.50;5036325;28;20033;-86
2023/08/31 08:13:32;;;;;;;0.00;0.00;;;;;;;19.57;94.42;100452.59;5025537;28;20036;-86
2023/08/31 08:15:57;;;;;;;0.00;0.00;;;;;;;19.69;95.68;100450.97;5026251;28;20036;-86
2023/08/31 08:18:22;;;;;;;0.00;0.00;;;;;;;19.81;94.06;100457.28;5026336;28;20159;-87
2023/08/31 08:20:49;;;;;;;0.00;0.00;;;;;;;20.01;95.50;100454.59;5023638;28;20133;-87
2023/08/31 08:23:15;;;;;;;0.10;0.00;;;;;;;20.07;92.76;100462.53;5045283;28;20478;-86
2023/08/31 08:25:40;;;;;;;0.03;0.00;;;;;;;20.04;94.36;100464.75;5042533;28;20041;-87
2023/08/31 08:28:06;;;;;;;0.00;0.00;;;;;;;19.86;90.07;100465.38;5030317;28;20033;-86
2023/08/31 08:30:31;;;;;;;0.00;0.00;;;;;;;19.91;94.95;100478.00;5035082;28;20032;-86
2023/08/31 08:32:58;;;;;;;0.10;0.00;;;;;;;20.02;84.48;100478.19;5038369;28;20040;-87
2023/08/31 08:35:24;;;;;;;0.00;0.00;;;;;;;20.20;86.16;100480.19;5045259;28;20454;-87
2023/08/31 08:37:49;;;;;;;0.00;0.00;;;;;;;20.27;86.95;100478.34;5050516;28;20171;-87
2023/08/31 08:40:15;;;;;;;0.00;0.00;;;;;;;20.26;89.78;100474.09;5042372;28;20039;-86
2023/08/31 08:42:42;;;;;;;0.00;0.00;;;;;;;20.08;85.95;100481.84;5036700;28;20041;-86
2023/08/31 08:45:16;;;;;;;0.00;0.00;;;;;;;20.02;86.99;100483.47;5050896;28;20382;-86
2023/08/31 08:47:46;;;;;;;0.00;0.00;;;;;;;20.08;85.75;100482.66;5051963;28;20055;-87
2023/08/31 08:50:12;;;;;;;0.00;0.00;;;;;;;20.18;89.67;100490.19;5050434;28;20509;-88
2023/08/31 08:52:39;;;;;;;0.00;0.00;;;;;;;20.15;90.76;100488.75;5037090;28;20128;-86
2023/08/31 08:55:05;;;;;;;0.00;0.00;;;;;;;20.15;86.08;100490.59;5037002;28;20025;-86
2023/08/31 08:57:31;;;;;;;0.00;0.00;;;;;;;20.26;90.69;100486.50;5037967;28;20026;-86
2023/08/31 08:59:58;;;;;;;0.00;0.00;;;;;;;20.54;92.87;100497.63;5042928;28;20040;-86
2023/08/31 09:02:24;;;;;;;0.08;0.00;;;;;;;20.74;93.75;100490.44;5050398;28;20048;-86
2023/08/31 09:04:54;;;;;;;0.13;0.00;;;;;;;20.86;94.16;100488.72;5040290;28;20490;-86
2023/08/31 09:07:21;;;;;;;0.00;0.00;;;;;;;20.91;92.31;100488.09;5055437;28;20060;-87
2023/08/31 09:09:51;;;;;;;0.00;0.00;;;;;;;20.87;93.81;100489.53;5052160;28;20029;-87
2023/08/31 09:12:17;;;;;;;0.00;0.00;;;;;;;20.82;92.66;100479.59;5047209;28;20025;-86
2023/08/31 09:14:43;;;;;;;0.10;0.00;;;;;;;20.84;89.17;100477.53;5042734;28;20391;-87
2023/08/31 09:17:08;;;;;;;0.00;0.00;;;;;;;20.83;80.38;100481.22;5050381;28;20041;-87
2023/08/31 09:19:34;;;;;;;0.00;0.00;;;;;;;20.76;85.11;100487.59;5043761;28;20482;-87
2023/08/31 09:22:00;;;;;;;0.00;0.00;;;;;;;20.61;84.05;100487.84;5053261;28;20121;-87
2023/08/31 09:24:25;;;;;;;0.00;0.00;;;;;;;20.58;84.38;100493.56;5051547;28;20029;-87
2023/08/31 09:26:57;;;;;;;0.00;0.00;;;;;;;20.55;79.32;100491.31;5047128;28;20025;-86
2023/08/31 09:29:23;;;;;;;0.00;0.00;;;;;;;20.47;78.57;100492.34;5032864;28;20033;-87
2023/08/31 09:31:49;;;;;;;0.00;0.00;;;;;;;20.49;84.36;100490.31;5056995;28;20048;-87
2023/08/31 09:34:15;;;;;;;0.00;0.00;;;;;;;20.47;87.67;100491.53;5043210;28;20023;-88
2023/08/31 09:36:41;;;;;;;0.00;0.00;;;;;;;20.43;89.34;100493.78;5049121;28;20061;-87
2023/08/31 09:39:12;;;;;;;0.00;0.00;;;;;;;20.44;86.05;100494.59;5050670;28;20044;-87
2023/08/31 09:41:55;;;;;;;0.00;0.00;;;;;;;20.44;85.17;100492.78;5048007;28;20119;-87
2023/08/31 09:44:20;;;;;;;0.00;0.00;;;;;;;20.40;79.52;100491.56;5049159;28;20028;-89
2023/08/31 09:46:46;;;;;;;0.00;0.00;;;;;;;20.46;78.32;100495.22;5047623;28;20029;-87
2023/08/31 09:49:21;;;;;;;0.00;0.00;;;;;;;20.51;80.75;100487.47;5067562;28;20033;-86
2023/08/31 09:51:50;;;;;;;0.00;0.00;;;;;;;20.48;74.50;100488.69;5052401;28;20119;-87
2023/08/31 09:54:17;;;;;;;0.00;0.00;;;;;;;20.45;84.50;100493.59;5047697;28;20132;-87
2023/08/31 09:56:44;;;;;;;0.00;0.00;;;;;;;20.69;71.32;100487.59;5048968;28;20036;-87
2023/08/31 09:59:11;;;;;;;0.10;0.00;;;;;;;21.07;81.85;100492.09;5061271;28;20036;-87
2023/08/31 10:01:37;;;;;;;0.00;0.00;;;;;;;21.17;77.73;100503.06;5051896;28;20434;-87
2023/08/31 10:04:03;;;;;;;0.10;0.00;;;;;;;21.16;75.84;100499.59;5052765;28;20090;-87
2023/08/31 10:06:30;;;;;;;0.32;0.00;;;;;;;21.40;85.66;100503.31;5051805;28;20099;-87
2023/08/31 10:08:56;;;;;;;0.10;0.00;;;;;;;21.47;87.83;100496.16;5060004;28;20042;-86
2023/08/31 10:11:25;;;;;;;0.00;0.00;;;;;;;21.41;89.68;100493.53;5046663;28;20033;-87
2023/08/31 10:13:53;;;;;;;0.10;0.00;;;;;;;21.37;87.75;100487.03;5050599;28;20075;-86
2023/08/31 10:16:19;;;;;;;0.00;0.00;;;;;;;21.27;87.18;100487.50;5060370;28;20102;-86
2023/08/31 10:18:45;;;;;;;0.00;0.00;;;;;;;21.29;90.90;100493.41;5051090;28;20501;-86
2023/08/31 10:21:12;;;;;;;0.17;0.00;;;;;;;21.41;91.70;100493.53;5039619;28;20033;-86
2023/08/31 10:23:47;;;;;;;0.00;0.00;;;;;;;21.34;92.17;100498.06;5038186;28;20048;-86
2023/08/31 10:26:22;;;;;;;;;;;;;;;21.23;78.37;100496.94;5045025;28;20048;-86
2023/08/31 10:28:48;;;;;;;0.00;0.00;;;;;;;21.09;87.05;100501.47;5035436;28;20007;-86
2023/08/31 10:31:17;;;;;;;0.00;0.00;;;;;;;21.18;91.70;100502.03;5039850;28;20124;-86
2023/08/31 10:34:09;;;;;;;0.00;0.00;;;;;;;21.31;91.76;100499.31;5038838;28;20398;-86
2023/08/31 10:36:45;;;;;;;0.00;0.00;;;;;;;21.27;89.08;100498.09;5066233;28;20037;-85
2023/08/31 10:39:19;;;;;;;0.00;0.00;;;;;;;21.33;92.15;100499.09;5045667;28;20035;-86
2023/08/31 10:41:55;;;;;;;0.00;0.00;;;;;;;21.38;91.23;100504.56;5045063;28;20029;-86
2023/08/31 10:44:26;;;;;;;0.00;0.00;;;;;;;21.40;87.62;100513.94;5049379;28;20025;-86
2023/08/31 10:46:53;;;;;;;0.00;0.00;;;;;;;21.39;84.05;100520.25;5042117;28;20110;-86
2023/08/31 10:49:20;;;;;;;0.00;0.00;;;;;;;21.35;78.89;100516.41;5042442;28;20390;-86
2023/08/31 10:51:49;;;;;;;0.00;0.00;;;;;;;21.48;90.63;100513.69;5046449;28;20029;-86
2023/08/31 10:54:25;;;;;;;0.00;0.00;;;;;;;21.59;89.90;100501.56;5044634;28;20134;-86
2023/08/31 10:56:57;;;;;;;0.00;0.00;;;;;;;21.67;92.26;100501.31;5044049;28;20041;-86
2023/08/31 10:59:24;;;;;;;0.00;0.00;;;;;;;21.54;86.48;100493.44;5043379;28;20733;-86
2023/08/31 11:02:02;;;;;;;0.00;0.00;;;;;;;21.37;85.74;100493.16;5048577;28;20029;-86
2023/08/31 11:04:29;;;;;;;0.00;0.00;;;;;;;21.33;87.59;100494.59;5046943;28;20028;-86
2023/08/31 11:07:13;;;;;;;0.00;0.00;;;;;;;21.33;81.25;100485.84;5042992;28;20654;-86
2023/08/31 11:09:39;;;;;;;0.13;0.00;;;;;;;21.49;88.21;100491.44;5049165;28;20037;-86
2023/08/31 11:12:04;;;;;;;0.47;0.00;;;;;;;21.50;84.17;100500.22;5050846;28;20041;-86
2023/08/31 11:14:30;;;;;;;0.00;0.00;;;;;;;21.49;75.40;100496.75;5066445;28;20029;-87
2023/08/31 11:16:55;;;;;;;0.00;0.00;;;;;;;21.50;78.70;100506.31;5047654;28;20139;-86
2023/08/31 11:19:21;;;;;;;0.00;0.00;;;;;;;21.50;84.96;100505.50;5039713;28;20033;-87